sensor_id;sensor_type;location;lat;lon;timestamp;pressure;altitude;pressure_sealevel;temperature;humidity
5146;BME280;2591;48.144;15.152;2023-03-04T00:02:13;77262.97;;;-144.65;100.00
5146;BME280;2591;48.144;15.152;2023-03-04T00:04:41;77269.06;;;-144.65;100.00
5146;BME280;2591;48.144;15.152;2023-03-04T00:07:09;77265.00;;;-144.65;100.00
5146;BME280;2591;48.144;15.152;2023-03-04T00:09:38;77269.06;;;-144.65;100.00
5146;BME280;2591;48.144;15.152;2023-03-04T00:12:06;77269.06;;;-144.65;100.00
5146;BME280;2591;48.144;15.152;2023-03-04T00:14:34;77260.91;;;-144.65;100.00
5146;BME280;2591;48.144;15.152;2023-03-04T00:17:02;77273.16;;;-144.65;100.00
5146;BME280;2591;48.144;15.152;2023-03-04T00:19:31;77269.06;;;-144.65;100.00
5146;BME280;2591;48.144;15.152;2023-03-04T00:22:01;77281.31;;;-144.65;100.00
5146;BME280;2591;48.144;15.152;2023-03-04T00:24:29;77289.47;;;-144.65;100.00
5146;BME280;2591;48.144;15.152;2023-03-04T00:26:57;77293.53;;;-144.65;100.00
5146;BME280;2591;48.144;15.152;2023-03-04T00:29:25;77291.50;;;-144.65;100.00
5146;BME280;2591;48.144;15.152;2023-03-04T00:31:53;77287.44;;;-144.65;100.00
5146;BME280;2591;48.144;15.152;2023-03-04T00:34:21;77281.31;;;-144.65;100.00
5146;BME280;2591;48.144;15.152;2023-03-04T00:36:50;77285.38;;;-144.65;100.00
5146;BME280;2591;48.144;15.152;2023-03-04T00:39:18;77281.31;;;-144.65;100.00
5146;BME280;2591;48.144;15.152;2023-03-04T00:41:45;77283.34;;;-144.65;100.00
5146;BME280;2591;48.144;15.152;2023-03-04T00:44:13;77277.22;;;-144.65;100.00
5146;BME280;2591;48.144;15.152;2023-03-04T00:46:41;77273.16;;;-144.65;100.00
5146;BME280;2591;48.144;15.152;2023-03-04T00:49:09;77267.03;;;-144.65;100.00
5146;BME280;2591;48.144;15.152;2023-03-04T00:51:36;77260.91;;;-144.65;100.00
5146;BME280;2591;48.144;15.152;2023-03-04T00:54:06;77252.75;;;-144.65;100.00
5146;BME280;2591;48.144;15.152;2023-03-04T00:56:33;77246.63;;;-144.65;100.00
5146;BME280;2591;48.144;15.152;2023-03-04T00:59:01;77244.59;;;-144.65;100.00
5146;BME280;2591;48.144;15.152;2023-03-04T01:01:29;77244.59;;;-144.65;100.00
5146;BME280;2591;48.144;15.152;2023-03-04T01:03:57;77240.53;;;-144.65;100.00
5146;BME280;2591;48.144;15.152;2023-03-04T01:06:24;77232.38;;;-144.65;100.00
5146;BME280;2591;48.144;15.152;2023-03-04T01:08:52;77232.38;;;-144.65;100.00
5146;BME280;2591;48.144;15.152;2023-03-04T01:11:21;77234.41;;;-144.65;100.00
5146;BME280;2591;48.144;15.152;2023-03-04T01:13:49;77242.56;;;-144.65;100.00
5146;BME280;2591;48.144;15.152;2023-03-04T01:16:17;77244.59;;;-144.65;100.00
5146;BME280;2591;48.144;15.152;2023-03-04T01:18:45;77244.59;;;-144.65;100.00
5146;BME280;2591;48.144;15.152;2023-03-04T01:21:13;77244.59;;;-144.65;100.00
5146;BME280;2591;48.144;15.152;2023-03-04T01:23:41;77244.59;;;-144.65;100.00
5146;BME280;2591;48.144;15.152;2023-03-04T01:26:09;77248.69;;;-144.65;100.00
5146;BME280;2591;48.144;15.152;2023-03-04T01:28:38;77254.78;;;-144.65;100.00
5146;BME280;2591;48.144;15.152;2023-03-04T01:31:06;77260.91;;;-144.65;100.00
5146;BME280;2591;48.144;15.152;2023-03-04T01:33:34;77260.91;;;-144.65;100.00
5146;BME280;2591;48.144;15.152;2023-03-04T01:36:02;77256.84;;;-144.65;100.00
5146;BME280;2591;48.144;15.152;2023-03-04T01:38:30;77262.97;;;-144.65;100.00
5146;BME280;2591;48.144;15.152;2023-03-04T01:40:58;77269.06;;;-144.65;100.00
5146;BME280;2591;48.144;15.152;2023-03-04T01:43:27;77269.06;;;-144.65;100.00
5146;BME280;2591;48.144;15.152;2023-03-04T01:45:57;77273.16;;;-144.65;100.00
5146;BME280;2591;48.144;15.152;2023-03-04T01:48:27;77277.22;;;-144.65;100.00
5146;BME280;2591;48.144;15.152;2023-03-04T01:50:56;77293.53;;;-144.65;100.00
5146;BME280;2591;48.144;15.152;2023-03-04T01:53:26;77297.63;;;-144.65;100.00
5146;BME280;2591;48.144;15.152;2023-03-04T01:55:56;77303.75;;;-144.65;100.00
5146;BME280;2591;48.144;15.152;2023-03-04T01:58:25;77301.72;;;-144.65;100.00
5146;BME280;2591;48.144;15.152;2023-03-04T02:00:54;77297.63;;;-144.65;100.00
5146;BME280;2591;48.144;15.152;2023-03-04T02:03:24;77299.66;;;-144.65;100.00
5146;BME280;2591;48.144;15.152;2023-03-04T02:05:52;77299.66;;;-144.65;100.00
5146;BME280;2591;48.144;15.152;2023-03-04T02:08:22;77293.53;;;-144.65;100.00
5146;BME280;2591;48.144;15.152;2023-03-04T02:10:51;77293.53;;;-144.65;100.00
5146;BME280;2591;48.144;15.152;2023-03-04T02:13:19;77293.53;;;-144.65;100.00
5146;BME280;2591;48.144;15.152;2023-03-04T02:15:47;77287.44;;;-144.65;100.00
5146;BME280;2591;48.144;15.152;2023-03-04T02:18:17;77289.47;;;-144.65;100.00
5146;BME280;2591;48.144;15.152;2023-03-04T02:20:55;77287.44;;;-144.65;100.00
5146;BME280;2591;48.144;15.152;2023-03-04T02:23:29;77289.47;;;-144.65;100.00
5146;BME280;2591;48.144;15.152;2023-03-04T02:26:13;77289.47;;;-144.65;100.00
5146;BME280;2591;48.144;15.152;2023-03-04T02:28:42;77283.34;;;-144.65;100.00
5146;BME280;2591;48.144;15.152;2023-03-04T02:31:19;77281.31;;;-144.65;100.00
5146;BME280;2591;48.144;15.152;2023-03-04T02:33:49;77285.38;;;-144.65;100.00
5146;BME280;2591;48.144;15.152;2023-03-04T02:36:17;77285.38;;;-144.65;100.00
5146;BME280;2591;48.144;15.152;2023-03-04T02:38:45;77281.31;;;-144.65;100.00
5146;BME280;2591;48.144;15.152;2023-03-04T02:41:17;77281.31;;;-144.65;100.00
5146;BME280;2591;48.144;15.152;2023-03-04T02:43:46;77285.38;;;-144.65;100.00
5146;BME280;2591;48.144;15.152;2023-03-04T02:46:15;77285.38;;;-144.65;100.00
5146;BME280;2591;48.144;15.152;2023-03-04T02:48:43;77283.34;;;-144.65;100.00
5146;BME280;2591;48.144;15.152;2023-03-04T02:51:11;77281.31;;;-144.65;100.00
5146;BME280;2591;48.144;15.152;2023-03-04T02:53:39;77281.31;;;-144.65;100.00
5146;BME280;2591;48.144;15.152;2023-03-04T02:56:07;77285.38;;;-144.65;100.00
5146;BME280;2591;48.144;15.152;2023-03-04T02:58:36;77285.38;;;-144.65;100.00
5146;BME280;2591;48.144;15.152;2023-03-04T03:01:05;77285.38;;;-144.65;100.00
5146;BME280;2591;48.144;15.152;2023-03-04T03:03:33;77289.47;;;-144.65;100.00
5146;BME280;2591;48.144;15.152;2023-03-04T03:06:01;77297.63;;;-144.65;100.00
5146;BME280;2591;48.144;15.152;2023-03-04T03:08:29;77293.53;;;-144.65;100.00
5146;BME280;2591;48.144;15.152;2023-03-04T03:10:57;77289.47;;;-144.65;100.00
5146;BME280;2591;48.144;15.152;2023-03-04T03:13:24;77293.53;;;-144.65;100.00
5146;BME280;2591;48.144;15.152;2023-03-04T03:15:53;77287.44;;;-144.65;100.00
5146;BME280;2591;48.144;15.152;2023-03-04T03:18:21;77285.38;;;-144.65;100.00
5146;BME280;2591;48.144;15.152;2023-03-04T03:20:49;77285.38;;;-144.65;100.00
5146;BME280;2591;48.144;15.152;2023-03-04T03:23:17;77283.34;;;-144.65;100.00
5146;BME280;2591;48.144;15.152;2023-03-04T03:25:46;77275.19;;;-144.65;100.00
5146;BME280;2591;48.144;15.152;2023-03-04T03:28:14;77277.22;;;-144.65;100.00
5146;BME280;2591;48.144;15.152;2023-03-04T03:30:42;77283.34;;;-144.65;100.00
5146;BME280;2591;48.144;15.152;2023-03-04T03:33:11;77275.19;;;-144.65;100.00
5146;BME280;2591;48.144;15.152;2023-03-04T03:35:38;77275.19;;;-144.65;100.00
5146;BME280;2591;48.144;15.152;2023-03-04T03:38:06;77265.00;;;-144.65;100.00
5146;BME280;2591;48.144;15.152;2023-03-04T03:40:34;77256.84;;;-144.65;100.00
5146;BME280;2591;48.144;15.152;2023-03-04T03:43:02;77248.69;;;-144.65;100.00
5146;BME280;2591;48.144;15.152;2023-03-04T03:45:30;77236.44;;;-144.65;100.00
5146;BME280;2591;48.144;15.152;2023-03-04T03:47:58;77240.53;;;-144.65;100.00
5146;BME280;2591;48.144;15.152;2023-03-04T03:50:27;77236.44;;;-144.65;100.00
5146;BME280;2591;48.144;15.152;2023-03-04T03:52:55;77226.25;;;-144.65;100.00
5146;BME280;2591;48.144;15.152;2023-03-04T03:55:24;77226.25;;;-144.65;100.00
5146;BME280;2591;48.144;15.152;2023-03-04T03:57:52;77222.16;;;-144.65;100.00
5146;BME280;2591;48.144;15.152;2023-03-04T04:00:20;77216.03;;;-144.65;100.00
5146;BME280;2591;48.144;15.152;2023-03-04T04:02:48;77216.03;;;-144.65;100.00
5146;BME280;2591;48.144;15.152;2023-03-04T04:05:16;77211.97;;;-144.65;100.00
5146;BME280;2591;48.144;15.152;2023-03-04T04:07:45;77216.03;;;-144.65;100.00
5146;BME280;2591;48.144;15.152;2023-03-04T04:10:13;77216.03;;;-144.65;100.00
5146;BME280;2591;48.144;15.152;2023-03-04T04:12:41;77207.88;;;-144.65;100.00
5146;BME280;2591;48.144;15.152;2023-03-04T04:15:10;77203.81;;;-144.65;100.00
5146;BME280;2591;48.144;15.152;2023-03-04T04:17:38;77209.94;;;-144.65;100.00
5146;BME280;2591;48.144;15.152;2023-03-04T04:20:07;77199.72;;;-144.65;100.00
5146;BME280;2591;48.144;15.152;2023-03-04T04:22:35;77199.72;;;-144.65;100.00
5146;BME280;2591;48.144;15.152;2023-03-04T04:25:06;77195.66;;;-144.65;100.00
5146;BME280;2591;48.144;15.152;2023-03-04T04:27:36;77193.63;;;-144.65;100.00
5146;BME280;2591;48.144;15.152;2023-03-04T04:30:05;77195.66;;;-144.65;100.00
5146;BME280;2591;48.144;15.152;2023-03-04T04:32:32;77193.63;;;-144.65;100.00
5146;BME280;2591;48.144;15.152;2023-03-04T04:35:00;77187.50;;;-144.65;100.00
5146;BME280;2591;48.144;15.152;2023-03-04T04:37:28;77187.50;;;-144.65;100.00
5146;BME280;2591;48.144;15.152;2023-03-04T04:39:56;77187.50;;;-144.65;100.00
5146;BME280;2591;48.144;15.152;2023-03-04T04:42:26;77179.34;;;-144.65;100.00
5146;BME280;2591;48.144;15.152;2023-03-04T04:44:53;77181.38;;;-144.65;100.00
5146;BME280;2591;48.144;15.152;2023-03-04T04:47:22;77185.47;;;-144.65;100.00
5146;BME280;2591;48.144;15.152;2023-03-04T04:49:50;77183.41;;;-144.65;100.00
5146;BME280;2591;48.144;15.152;2023-03-04T04:52:18;77189.53;;;-144.65;100.00
5146;BME280;2591;48.144;15.152;2023-03-04T04:54:46;77187.50;;;-144.65;100.00
5146;BME280;2591;48.144;15.152;2023-03-04T04:57:13;77191.56;;;-144.65;100.00
5146;BME280;2591;48.144;15.152;2023-03-04T04:59:43;77197.69;;;-144.65;100.00
5146;BME280;2591;48.144;15.152;2023-03-04T05:02:10;77195.66;;;-144.65;100.00
5146;BME280;2591;48.144;15.152;2023-03-04T05:04:38;77203.81;;;-144.65;100.00
5146;BME280;2591;48.144;15.152;2023-03-04T05:07:06;77203.81;;;-144.65;100.00
5146;BME280;2591;48.144;15.152;2023-03-04T05:09:34;77214.00;;;-144.65;100.00
5146;BME280;2591;48.144;15.152;2023-03-04T05:12:02;77211.97;;;-144.65;100.00
5146;BME280;2591;48.144;15.152;2023-03-04T05:14:29;77209.94;;;-144.65;100.00
5146;BME280;2591;48.144;15.152;2023-03-04T05:16:59;77211.97;;;-144.65;100.00
5146;BME280;2591;48.144;15.152;2023-03-04T05:19:27;77205.84;;;-144.65;100.00
5146;BME280;2591;48.144;15.152;2023-03-04T05:21:55;77207.88;;;-144.65;100.00
5146;BME280;2591;48.144;15.152;2023-03-04T05:24:22;77211.97;;;-144.65;100.00
5146;BME280;2591;48.144;15.152;2023-03-04T05:26:50;77207.88;;;-144.65;100.00
5146;BME280;2591;48.144;15.152;2023-03-04T05:29:18;77207.88;;;-144.65;100.00
5146;BME280;2591;48.144;15.152;2023-03-04T05:31:46;77207.88;;;-144.65;100.00
5146;BME280;2591;48.144;15.152;2023-03-04T05:34:15;77209.94;;;-144.65;100.00
5146;BME280;2591;48.144;15.152;2023-03-04T05:36:43;77205.84;;;-144.65;100.00
5146;BME280;2591;48.144;15.152;2023-03-04T05:39:11;77211.97;;;-144.65;100.00
5146;BME280;2591;48.144;15.152;2023-03-04T05:41:39;77211.97;;;-144.65;100.00
5146;BME280;2591;48.144;15.152;2023-03-04T05:44:07;77214.00;;;-144.65;100.00
5146;BME280;2591;48.144;15.152;2023-03-04T05:46:34;77216.03;;;-144.65;100.00
5146;BME280;2591;48.144;15.152;2023-03-04T05:49:02;77216.03;;;-144.65;100.00
5146;BME280;2591;48.144;15.152;2023-03-04T05:51:31;77220.13;;;-144.65;100.00
5146;BME280;2591;48.144;15.152;2023-03-04T05:53:59;77211.97;;;-144.65;100.00
5146;BME280;2591;48.144;15.152;2023-03-04T05:56:27;77222.16;;;-144.65;100.00
5146;BME280;2591;48.144;15.152;2023-03-04T05:58:56;77211.97;;;-144.65;100.00
5146;BME280;2591;48.144;15.152;2023-03-04T06:01:24;77211.97;;;-144.65;100.00
5146;BME280;2591;48.144;15.152;2023-03-04T06:03:53;77203.81;;;-144.65;100.00
5146;BME280;2591;48.144;15.152;2023-03-04T06:06:20;77199.72;;;-144.65;100.00
5146;BME280;2591;48.144;15.152;2023-03-04T06:08:50;77199.72;;;-144.65;100.00
5146;BME280;2591;48.144;15.152;2023-03-04T06:11:17;77195.66;;;-144.65;100.00
5146;BME280;2591;48.144;15.152;2023-03-04T06:13:45;77197.69;;;-144.65;100.00
5146;BME280;2591;48.144;15.152;2023-03-04T06:16:13;77195.66;;;-144.65;100.00
5146;BME280;2591;48.144;15.152;2023-03-04T06:18:41;77191.56;;;-144.65;100.00
5146;BME280;2591;48.144;15.152;2023-03-04T06:21:09;77183.41;;;-144.65;100.00
5146;BME280;2591;48.144;15.152;2023-03-04T06:23:37;77175.25;;;-144.65;100.00
5146;BME280;2591;48.144;15.152;2023-03-04T06:26:06;77167.09;;;-144.65;100.00
5146;BME280;2591;48.144;15.152;2023-03-04T06:28:37;77167.09;;;-144.65;100.00
5146;BME280;2591;48.144;15.152;2023-03-04T06:31:05;77154.88;;;-144.65;100.00
5146;BME280;2591;48.144;15.152;2023-03-04T06:33:33;77150.78;;;-144.65;100.00
5146;BME280;2591;48.144;15.152;2023-03-04T06:36:01;77146.72;;;-144.65;100.00
5146;BME280;2591;48.144;15.152;2023-03-04T06:38:29;77138.56;;;-144.65;100.00
5146;BME280;2591;48.144;15.152;2023-03-04T06:41:06;77130.41;;;-144.65;100.00
5146;BME280;2591;48.144;15.152;2023-03-04T06:43:34;77124.28;;;-144.65;100.00
5146;BME280;2591;48.144;15.152;2023-03-04T06:46:02;77114.06;;;-144.65;100.00
5146;BME280;2591;48.144;15.152;2023-03-04T06:48:30;77110.00;;;-144.65;100.00
5146;BME280;2591;48.144;15.152;2023-03-04T06:51:04;77107.97;;;-144.65;100.00
5146;BME280;2591;48.144;15.152;2023-03-04T06:53:32;77093.69;;;-144.65;100.00
5146;BME280;2591;48.144;15.152;2023-03-04T06:56:00;77093.69;;;-144.65;100.00
5146;BME280;2591;48.144;15.152;2023-03-04T06:58:29;77089.59;;;-144.65;100.00
5146;BME280;2591;48.144;15.152;2023-03-04T07:01:14;77075.31;;;-144.65;100.00
5146;BME280;2591;48.144;15.152;2023-03-04T07:03:43;77071.25;;;-144.65;100.00
5146;BME280;2591;48.144;15.152;2023-03-04T07:06:12;77056.97;;;-144.65;100.00
5146;BME280;2591;48.144;15.152;2023-03-04T07:08:40;77050.84;;;-144.65;100.00
5146;BME280;2591;48.144;15.152;2023-03-04T07:11:09;77044.75;;;-144.65;100.00
5146;BME280;2591;48.144;15.152;2023-03-04T07:13:38;77040.66;;;-144.65;100.00
5146;BME280;2591;48.144;15.152;2023-03-04T07:16:07;77024.34;;;-144.65;100.00
5146;BME280;2591;48.144;15.152;2023-03-04T07:18:37;77020.25;;;-144.65;100.00
5146;BME280;2591;48.144;15.152;2023-03-04T07:21:06;77010.06;;;-144.65;100.00
5146;BME280;2591;48.144;15.152;2023-03-04T07:23:35;77001.91;;;-144.65;100.00
5146;BME280;2591;48.144;15.152;2023-03-04T07:26:03;76995.78;;;-144.65;100.00
5146;BME280;2591;48.144;15.152;2023-03-04T07:28:32;76989.69;;;-144.65;100.00
5146;BME280;2591;48.144;15.152;2023-03-04T07:31:12;76983.56;;;-144.65;100.00
5146;BME280;2591;48.144;15.152;2023-03-04T07:33:42;76967.25;;;-144.65;100.00
5146;BME280;2591;48.144;15.152;2023-03-04T07:36:09;76977.44;;;-144.65;100.00
5146;BME280;2591;48.144;15.152;2023-03-04T07:38:42;76959.09;;;-144.65;100.00
5146;BME280;2591;48.144;15.152;2023-03-04T07:41:10;76952.97;;;-144.65;100.00
5146;BME280;2591;48.144;15.152;2023-03-04T07:43:38;76946.84;;;-144.65;100.00
5146;BME280;2591;48.144;15.152;2023-03-04T07:46:07;76934.63;;;-144.65;100.00
5146;BME280;2591;48.144;15.152;2023-03-04T07:48:36;76934.63;;;-144.65;100.00
5146;BME280;2591;48.144;15.152;2023-03-04T07:51:06;76916.25;;;-144.65;100.00
5146;BME280;2591;48.144;15.152;2023-03-04T07:53:35;76910.16;;;-144.65;100.00
5146;BME280;2591;48.144;15.152;2023-03-04T07:56:04;76891.78;;;-144.65;100.00
5146;BME280;2591;48.144;15.152;2023-03-04T07:58:32;76873.44;;;-144.65;100.00
5146;BME280;2591;48.144;15.152;2023-03-04T08:01:00;76869.34;;;-144.65;100.00
5146;BME280;2591;48.144;15.152;2023-03-04T08:03:29;76869.34;;;-144.65;100.00
5146;BME280;2591;48.144;15.152;2023-03-04T08:05:57;76881.59;;;-144.65;100.00
5146;BME280;2591;48.144;15.152;2023-03-04T08:08:25;76861.19;;;-144.65;100.00
5146;BME280;2591;48.144;15.152;2023-03-04T08:10:53;76848.97;;;-144.65;100.00
5146;BME280;2591;48.144;15.152;2023-03-04T08:13:20;76848.97;;;-144.65;100.00
5146;BME280;2591;48.144;15.152;2023-03-04T08:15:51;76844.88;;;-144.65;100.00
5146;BME280;2591;48.144;15.152;2023-03-04T08:18:19;76836.72;;;-144.65;100.00
5146;BME280;2591;48.144;15.152;2023-03-04T08:20:48;76830.63;;;-144.65;100.00
5146;BME280;2591;48.144;15.152;2023-03-04T08:23:16;76820.41;;;-144.65;97.61
5146;BME280;2591;48.144;15.152;2023-03-04T08:25:44;76820.41;;;-144.65;97.68
5146;BME280;2591;48.144;15.152;2023-03-04T08:28:13;76832.66;;;-144.65;97.49
5146;BME280;2591;48.144;15.152;2023-03-04T08:30:41;76832.66;;;-144.65;96.71
5146;BME280;2591;48.144;15.152;2023-03-04T08:33:09;76828.56;;;-144.65;96.16
5146;BME280;2591;48.144;15.152;2023-03-04T08:35:38;76820.41;;;-144.65;96.96
5146;BME280;2591;48.144;15.152;2023-03-04T08:38:08;76787.78;;;-144.65;95.75
5146;BME280;2591;48.144;15.152;2023-03-04T08:40:35;76779.63;;;-144.65;93.44
5146;BME280;2591;48.144;15.152;2023-03-04T08:43:03;76771.47;;;-144.65;90.68
5146;BME280;2591;48.144;15.152;2023-03-04T08:45:31;76747.00;;;-144.65;88.31
5146;BME280;2591;48.144;15.152;2023-03-04T08:47:59;76755.16;;;-144.65;84.89
5146;BME280;2591;48.144;15.152;2023-03-04T08:50:27;76751.09;;;-144.65;84.86
5146;BME280;2591;48.144;15.152;2023-03-04T08:52:54;76744.97;;;-144.65;83.58
5146;BME280;2591;48.144;15.152;2023-03-04T08:55:23;76738.84;;;-144.65;83.06
5146;BME280;2591;48.144;15.152;2023-03-04T08:57:51;76722.53;;;-144.65;81.36
5146;BME280;2591;48.144;15.152;2023-03-04T09:00:19;76689.91;;;-144.65;80.64
5146;BME280;2591;48.144;15.152;2023-03-04T09:02:47;76669.53;;;-144.65;78.89
5146;BME280;2591;48.144;15.152;2023-03-04T09:05:15;76655.25;;;-144.65;77.64
5146;BME280;2591;48.144;15.152;2023-03-04T09:07:43;76645.03;;;-144.65;76.55
5146;BME280;2591;48.144;15.152;2023-03-04T09:10:11;76614.47;;;-144.65;73.97
5146;BME280;2591;48.144;15.152;2023-03-04T09:12:40;76608.34;;;-144.65;73.24
5146;BME280;2591;48.144;15.152;2023-03-04T09:15:09;76620.56;;;-144.65;73.19
5146;BME280;2591;48.144;15.152;2023-03-04T09:17:37;76638.94;;;-144.65;73.19
5146;BME280;2591;48.144;15.152;2023-03-04T09:20:07;76620.56;;;-144.65;72.75
5146;BME280;2591;48.144;15.152;2023-03-04T09:22:37;76616.50;;;-144.65;72.00
5146;BME280;2591;48.144;15.152;2023-03-04T09:25:06;76640.97;;;-144.65;71.97
5146;BME280;2591;48.144;15.152;2023-03-04T09:27:38;76636.91;;;-144.65;71.90
5146;BME280;2591;48.144;15.152;2023-03-04T09:30:09;76624.66;;;-144.65;71.02
5146;BME280;2591;48.144;15.152;2023-03-04T09:32:37;76632.81;;;-144.65;71.33
5146;BME280;2591;48.144;15.152;2023-03-04T09:35:05;76620.56;;;-144.65;71.17
5146;BME280;2591;48.144;15.152;2023-03-04T09:37:33;76614.47;;;-144.65;71.31
5146;BME280;2591;48.144;15.152;2023-03-04T09:40:02;76587.94;;;-144.65;72.12
5146;BME280;2591;48.144;15.152;2023-03-04T09:42:34;76563.47;;;-144.65;70.92
5146;BME280;2591;48.144;15.152;2023-03-04T09:45:03;76530.84;;;-144.65;70.43
5146;BME280;2591;48.144;15.152;2023-03-04T09:47:36;76524.75;;;-144.65;70.51
5146;BME280;2591;48.144;15.152;2023-03-04T09:50:07;76506.38;;;-144.65;69.92
5146;BME280;2591;48.144;15.152;2023-03-04T09:52:47;76479.88;;;-144.65;69.68
5146;BME280;2591;48.144;15.152;2023-03-04T09:55:20;76449.28;;;-144.65;67.71
5146;BME280;2591;48.144;15.152;2023-03-04T09:57:52;76441.16;;;-144.65;67.15
5146;BME280;2591;48.144;15.152;2023-03-04T10:00:25;76416.69;;;-144.65;66.05
5146;BME280;2591;48.144;15.152;2023-03-04T10:03:05;76369.78;;;-144.65;66.03
5146;BME280;2591;48.144;15.152;2023-03-04T10:05:40;76361.63;;;-144.65;65.98
5146;BME280;2591;48.144;15.152;2023-03-04T10:08:30;76357.53;;;-144.65;65.68
5146;BME280;2591;48.144;15.152;2023-03-04T10:11:02;76314.72;;;-144.65;63.65
5146;BME280;2591;48.144;15.152;2023-03-04T10:13:37;76343.28;;;-144.65;64.38
5146;BME280;2591;48.144;15.152;2023-03-04T10:16:10;76310.66;;;-144.65;63.86
5146;BME280;2591;48.144;15.152;2023-03-04T10:18:47;76310.66;;;-144.65;62.88
5146;BME280;2591;48.144;15.152;2023-03-04T10:21:22;76322.88;;;-144.65;62.33
5146;BME280;2591;48.144;15.152;2023-03-04T10:23:50;76314.72;;;-144.65;63.56
5146;BME280;2591;48.144;15.152;2023-03-04T10:26:20;76249.47;;;-144.65;62.10
5146;BME280;2591;48.144;15.152;2023-03-04T10:28:49;76249.47;;;-144.65;61.93
5146;BME280;2591;48.144;15.152;2023-03-04T10:31:20;76263.75;;;-144.65;62.00
5146;BME280;2591;48.144;15.152;2023-03-04T10:33:55;76261.72;;;-144.65;61.54
5146;BME280;2591;48.144;15.152;2023-03-04T10:36:35;76261.72;;;-144.65;62.41
5146;BME280;2591;48.144;15.152;2023-03-04T10:39:08;76227.06;;;-144.65;61.96
5146;BME280;2591;48.144;15.152;2023-03-04T10:41:39;76208.69;;;-144.65;61.38
5146;BME280;2591;48.144;15.152;2023-03-04T10:44:14;76206.66;;;-144.65;61.32
5146;BME280;2591;48.144;15.152;2023-03-04T10:46:44;76192.41;;;-144.65;61.12
5146;BME280;2591;48.144;15.152;2023-03-04T10:49:15;76200.56;;;-144.65;60.59
5146;BME280;2591;48.144;15.152;2023-03-04T10:51:45;76212.78;;;-144.65;61.36
5146;BME280;2591;48.144;15.152;2023-03-04T10:54:23;76225.00;;;-144.65;61.59
5146;BME280;2591;48.144;15.152;2023-03-04T10:56:54;76202.59;;;-144.65;61.78
5146;BME280;2591;48.144;15.152;2023-03-04T11:02:30;76147.53;;;-144.65;60.75
5146;BME280;2591;48.144;15.152;2023-03-04T11:05:16;76163.84;;;-144.65;60.60
5146;BME280;2591;48.144;15.152;2023-03-04T11:07:48;76178.13;;;-144.65;60.44
5146;BME280;2591;48.144;15.152;2023-03-04T11:10:24;76180.16;;;-144.65;60.81
5146;BME280;2591;48.144;15.152;2023-03-04T11:12:59;76167.94;;;-144.65;60.63
5146;BME280;2591;48.144;15.152;2023-03-04T11:15:29;76155.69;;;-144.65;60.75
5146;BME280;2591;48.144;15.152;2023-03-04T11:18:00;76139.38;;;-144.65;60.14
5146;BME280;2591;48.144;15.152;2023-03-04T11:20:32;76131.22;;;-144.65;59.98
5146;BME280;2591;48.144;15.152;2023-03-04T11:23:04;76114.91;;;-144.65;59.35
5146;BME280;2591;48.144;15.152;2023-03-04T11:25:35;76106.75;;;-144.65;59.77
5146;BME280;2591;48.144;15.152;2023-03-04T11:28:12;76076.19;;;-144.65;59.05
5146;BME280;2591;48.144;15.152;2023-03-04T11:30:44;76076.19;;;-144.65;59.92
5146;BME280;2591;48.144;15.152;2023-03-04T11:33:20;76025.22;;;-144.65;58.85
5146;BME280;2591;48.144;15.152;2023-03-04T11:35:58;76049.69;;;-144.65;57.42
5146;BME280;2591;48.144;15.152;2023-03-04T11:38:32;76051.72;;;-144.65;57.73
5146;BME280;2591;48.144;15.152;2023-03-04T11:41:05;76063.94;;;-144.65;59.05
5146;BME280;2591;48.144;15.152;2023-03-04T11:43:38;76037.44;;;-144.65;57.15
5146;BME280;2591;48.144;15.152;2023-03-04T11:49:26;75992.59;;;-144.65;55.95
5146;BME280;2591;48.144;15.152;2023-03-04T11:52:06;75986.47;;;-144.65;55.57
5146;BME280;2591;48.144;15.152;2023-03-04T11:54:43;75947.75;;;-144.65;55.59
5146;BME280;2591;48.144;15.152;2023-03-04T11:57:23;75943.66;;;-144.65;55.69
5146;BME280;2591;48.144;15.152;2023-03-04T12:00:03;75939.59;;;-144.65;55.22
5146;BME280;2591;48.144;15.152;2023-03-04T12:02:38;75951.81;;;-144.65;54.76
5146;BME280;2591;48.144;15.152;2023-03-04T12:05:16;75978.31;;;-144.65;55.00
5146;BME280;2591;48.144;15.152;2023-03-04T12:08:11;75968.13;;;-144.65;54.76
5146;BME280;2591;48.144;15.152;2023-03-04T12:10:50;75968.13;;;-144.65;55.32
5146;BME280;2591;48.144;15.152;2023-03-04T12:13:51;75945.69;;;-144.65;54.70
5146;BME280;2591;48.144;15.152;2023-03-04T12:19:25;75923.28;;;-144.65;54.98
5146;BME280;2591;48.144;15.152;2023-03-04T12:22:15;75943.66;;;-144.65;55.60
5146;BME280;2591;48.144;15.152;2023-03-04T12:25:11;75931.44;;;-144.65;55.60
5146;BME280;2591;48.144;15.152;2023-03-04T12:27:53;75923.28;;;-144.65;55.26
5146;BME280;2591;48.144;15.152;2023-03-04T12:30:34;75911.03;;;-144.65;55.18
5146;BME280;2591;48.144;15.152;2023-03-04T12:33:11;75906.97;;;-144.65;56.26
5146;BME280;2591;48.144;15.152;2023-03-04T12:35:45;75898.81;;;-144.65;55.74
5146;BME280;2591;48.144;15.152;2023-03-04T12:38:47;75900.84;;;-144.65;55.40
5146;BME280;2591;48.144;15.152;2023-03-04T12:41:28;75890.66;;;-144.65;55.40
5146;BME280;2591;48.144;15.152;2023-03-04T12:44:08;75882.50;;;-144.65;55.92
5146;BME280;2591;48.144;15.152;2023-03-04T12:47:03;75880.47;;;-144.65;55.86
5146;BME280;2591;48.144;15.152;2023-03-04T12:49:48;75880.47;;;-144.65;56.04
5146;BME280;2591;48.144;15.152;2023-03-04T12:52:26;75872.31;;;-144.65;55.66
5146;BME280;2591;48.144;15.152;2023-03-04T12:55:01;75853.97;;;-144.65;55.47
5146;BME280;2591;48.144;15.152;2023-03-04T12:57:31;75858.03;;;-144.65;55.86
5146;BME280;2591;48.144;15.152;2023-03-04T13:00:13;75849.88;;;-144.65;55.88
5146;BME280;2591;48.144;15.152;2023-03-04T13:02:53;75841.72;;;-144.65;55.79
5146;BME280;2591;48.144;15.152;2023-03-04T13:05:30;75829.50;;;-144.65;56.21
5146;BME280;2591;48.144;15.152;2023-03-04T13:08:12;75821.34;;;-144.65;55.97
5146;BME280;2591;48.144;15.152;2023-03-04T13:10:45;75811.16;;;-144.65;55.21